createdAt,value
2023-04-01T00:01:06.940Z,98400.84
2023-04-01T00:03:34.852Z,98400.50
2023-04-01T00:06:02.334Z,98391.19
2023-04-01T00:08:29.918Z,98396.78
2023-04-01T00:10:58.113Z,98400.28
2023-04-01T00:13:27.200Z,98394.13
2023-04-01T00:15:54.892Z,98394.94
2023-04-01T00:18:22.496Z,98393.50
2023-04-01T00:20:50.325Z,98394.13
2023-04-01T00:23:17.832Z,98392.84
2023-04-01T00:25:46.305Z,98393.66
2023-04-01T00:28:13.520Z,98401.69
2023-04-01T00:30:40.676Z,98394.22
2023-04-01T00:33:07.938Z,98395.84
2023-04-01T00:35:35.671Z,98400.38
2023-04-01T00:38:02.853Z,98391.06
2023-04-01T00:40:31.844Z,98392.75
2023-04-01T00:42:59.049Z,98395.22
2023-04-01T00:45:39.123Z,98399.75
2023-04-01T00:48:09.734Z,98393.19
2023-04-01T00:50:38.103Z,98387.91
2023-04-01T00:53:06.495Z,98390.59
2023-04-01T00:55:36.220Z,98393.56
2023-04-01T00:58:06.207Z,98388.88
2023-04-01T01:00:34.746Z,98383.72
2023-04-01T01:03:03.604Z,98390.72
2023-04-01T01:05:48.410Z,98377.72
2023-04-01T01:08:31.395Z,98377.53
2023-04-01T01:10:58.494Z,98373.88
2023-04-01T01:13:37.065Z,98377.91
2023-04-01T01:16:11.577Z,98373.88
2023-04-01T01:18:38.653Z,98374.22
2023-04-01T01:21:24.562Z,98387.56
2023-04-01T01:23:57.938Z,98370.91
2023-04-01T01:26:27.244Z,98373.78
2023-04-01T01:29:12.961Z,98377.91
2023-04-01T01:31:46.362Z,98361.22
2023-04-01T01:34:13.507Z,98370.91
2023-04-01T01:36:43.611Z,98363.88
2023-04-01T01:39:10.885Z,98373.03
2023-04-01T01:41:39.981Z,98369.38
2023-04-01T01:44:08.324Z,98362.53
2023-04-01T01:46:36.416Z,98355.88
2023-04-01T01:49:04.120Z,98347.88
2023-04-01T01:51:31.591Z,98347.53
2023-04-01T01:54:00.264Z,98357.84
2023-04-01T01:56:28.974Z,98360.03
2023-04-01T01:59:09.473Z,98348.69
2023-04-01T02:01:39.399Z,98343.66
2023-04-01T02:04:12.158Z,98346.88
2023-04-01T02:06:43.233Z,98350.84
2023-04-01T02:09:11.714Z,98345.03
2023-04-01T02:11:42.538Z,98339.41
2023-04-01T02:14:16.565Z,98334.25
2023-04-01T02:16:51.558Z,98338.03
2023-04-01T02:19:23.579Z,98331.97
2023-04-01T02:21:54.103Z,98336.25
2023-04-01T02:24:23.393Z,98337.78
2023-04-01T02:26:52.371Z,98347.31
2023-04-01T02:29:21.557Z,98348.16
2023-04-01T02:31:49.996Z,98343.97
2023-04-01T02:34:17.386Z,98346.50
2023-04-01T02:36:44.822Z,98352.34
2023-04-01T02:39:13.914Z,98351.97
2023-04-01T02:41:41.745Z,98359.97
2023-04-01T02:44:09.185Z,98354.81
2023-04-01T02:46:36.860Z,98355.66
2023-04-01T02:49:05.724Z,98353.25
2023-04-01T02:51:33.175Z,98352.88
2023-04-01T02:54:00.591Z,98356.94
2023-04-01T02:56:28.014Z,98354.88
2023-04-01T02:58:55.404Z,98368.53
2023-04-01T03:01:23.199Z,98371.03
2023-04-01T03:03:50.491Z,98368.72
2023-04-01T03:06:17.563Z,98370.91
2023-04-01T03:08:44.762Z,98373.41
2023-04-01T03:11:12.105Z,98372.09
2023-04-01T03:13:39.297Z,98370.38
2023-04-01T03:16:06.604Z,98377.38
2023-04-01T03:18:33.738Z,98369.91
2023-04-01T03:21:23.616Z,98380.41
2023-04-01T03:23:51.152Z,98358.38
2023-04-01T03:26:18.270Z,98367.13
2023-04-01T03:28:45.501Z,98367.28
2023-04-01T03:31:13.113Z,98370.34
2023-04-01T03:33:46.938Z,98366.94
2023-04-01T03:36:14.269Z,98371.28
2023-04-01T03:38:42.417Z,98370.09
2023-04-01T03:41:13.021Z,98372.47
2023-04-01T03:43:40.324Z,98368.78
2023-04-01T03:46:07.529Z,98378.09
2023-04-01T03:48:34.739Z,98370.63
2023-04-01T03:51:01.852Z,98372.47
2023-04-01T03:53:29.135Z,98371.50
2023-04-01T03:55:59.453Z,98365.91
2023-04-01T03:58:26.527Z,98374.72
2023-04-01T04:00:54.452Z,98376.41
2023-04-01T04:03:21.633Z,98373.53
2023-04-01T04:05:49.201Z,98375.91
2023-04-01T04:08:17.741Z,98361.63
2023-04-01T04:10:45.688Z,98374.63
2023-04-01T04:13:12.743Z,98357.19
2023-04-01T04:15:46.217Z,98366.31
2023-04-01T04:18:13.297Z,98364.53
2023-04-01T04:20:46.568Z,98371.72
2023-04-01T04:23:13.676Z,98362.41
2023-04-01T04:25:41.767Z,98375.06
2023-04-01T04:28:08.942Z,98371.56
2023-04-01T04:30:36.084Z,98378.34
2023-04-01T04:33:04.359Z,98375.50
2023-04-01T04:35:32.173Z,98383.13
2023-04-01T04:37:59.489Z,98385.28
2023-04-01T04:40:26.720Z,98391.78
2023-04-01T04:42:53.900Z,98393.78
2023-04-01T04:45:21.221Z,98398.44
2023-04-01T04:47:54.930Z,98390.25
2023-04-01T04:50:22.097Z,98398.06
2023-04-01T04:52:49.195Z,98407.41
2023-04-01T04:55:16.577Z,98400.06
2023-04-01T04:57:47.244Z,98396.78
2023-04-01T05:00:14.453Z,98397.63
2023-04-01T05:02:55.527Z,98401.41
2023-04-01T05:05:22.771Z,98409.13
2023-04-01T05:07:49.795Z,98411.41
2023-04-01T05:10:17.041Z,98410.41
2023-04-01T05:12:44.160Z,98410.41
2023-04-01T05:15:16.129Z,98409.22
2023-04-01T05:17:43.493Z,98409.69
2023-04-01T05:20:12.580Z,98408.41
2023-04-01T05:22:39.911Z,98413.19
2023-04-01T05:25:07.260Z,98416.69
2023-04-01T05:27:34.587Z,98424.53
2023-04-01T05:30:01.829Z,98414.03
2023-04-01T05:32:46.127Z,98400.34
2023-04-01T05:35:13.227Z,98410.19
2023-04-01T05:37:40.277Z,98415.34
2023-04-01T05:40:07.631Z,98410.66
2023-04-01T05:42:36.763Z,98418.31
2023-04-01T05:45:05.690Z,98414.63
2023-04-01T05:47:51.355Z,98404.25
2023-04-01T05:50:19.236Z,98415.25
2023-04-01T05:52:46.448Z,98404.25
2023-04-01T05:55:13.621Z,98412.91
2023-04-01T05:57:40.786Z,98418.25
2023-04-01T06:00:08.113Z,98428.56
2023-04-01T06:02:42.920Z,98419.09
2023-04-01T06:05:13.508Z,98420.75
2023-04-01T06:07:41.070Z,98425.25
2023-04-01T06:10:19.571Z,98423.22
2023-04-01T06:12:53.373Z,98415.88
2023-04-01T06:15:33.826Z,98428.03
2023-04-01T06:18:15.124Z,98422.88
2023-04-01T06:21:01.410Z,98421.50
2023-04-01T06:23:31.203Z,98411.47
2023-04-01T06:26:24.692Z,98426.78
2023-04-01T06:29:05.834Z,98409.59
2023-04-01T06:31:47.879Z,98423.06
2023-04-01T06:34:31.672Z,98433.19
2023-04-01T06:37:17.397Z,98430.19
2023-04-01T06:39:47.906Z,98428.34
2023-04-01T06:42:18.108Z,98430.94
2023-04-01T06:44:56.442Z,98436.28
2023-04-01T06:47:56.016Z,98410.88
2023-04-01T06:50:56.783Z,98421.03
2023-04-01T06:53:57.395Z,98408.63
2023-04-01T06:56:50.994Z,98415.06
2023-04-01T06:59:26.783Z,98426.41
2023-04-01T07:01:56.483Z,98438.22
2023-04-01T07:04:30.623Z,98434.88
2023-04-01T07:06:59.703Z,98417.94
2023-04-01T07:09:32.197Z,98427.25
2023-04-01T07:12:31.774Z,98405.97
2023-04-01T07:15:22.104Z,98405.16
2023-04-01T07:17:53.724Z,98412.50
2023-04-01T07:20:24.081Z,98418.03
2023-04-01T07:22:53.502Z,98413.44
2023-04-01T07:25:44.652Z,98392.78
2023-04-01T07:28:31.202Z,98390.56
2023-04-01T07:31:04.579Z,98400.06
2023-04-01T07:33:40.415Z,98424.94
2023-04-01T07:36:25.425Z,98428.84
2023-04-01T07:38:59.082Z,98430.38
2023-04-01T07:41:57.567Z,98457.69
2023-04-01T07:44:43.621Z,98508.19
2023-04-01T07:47:26.681Z,98451.06
2023-04-01T07:50:02.891Z,98432.16
2023-04-01T07:52:32.776Z,98462.34
2023-04-01T07:55:15.285Z,98437.25
2023-04-01T07:57:48.189Z,98428.81
2023-04-01T08:00:24.012Z,98419.84
2023-04-01T08:03:02.550Z,98390.56
2023-04-01T08:05:31.786Z,98407.91
2023-04-01T08:08:26.371Z,98432.53
2023-04-01T08:11:25.342Z,98360.47
2023-04-01T08:14:33.476Z,98380.34
2023-04-01T08:17:46.815Z,98338.38
2023-04-01T08:20:29.637Z,98341.88
2023-04-01T08:23:03.031Z,98345.84
2023-04-01T08:25:38.501Z,98340.28
2023-04-01T08:28:16.990Z,98334.50
2023-04-01T08:30:47.166Z,98306.94
2023-04-01T08:33:18.262Z,98290.00
2023-04-01T08:35:59.292Z,98272.25
2023-04-01T08:38:41.531Z,98258.81
2023-04-01T08:41:19.171Z,98240.31
2023-04-01T08:44:18.240Z,98238.16
2023-04-01T08:46:49.848Z,98250.78
2023-04-01T08:49:42.948Z,98231.53
2023-04-01T08:52:17.509Z,98198.28
2023-04-01T08:54:57.184Z,98208.50
2023-04-01T08:57:51.485Z,98197.91
2023-04-01T09:01:18.229Z,98175.56
2023-04-01T09:04:04.442Z,98172.91
2023-04-01T09:06:37.652Z,98187.94
2023-04-01T09:09:11.460Z,98187.94
2023-04-01T09:11:56.047Z,98189.19
2023-04-01T09:14:38.622Z,98150.78
2023-04-01T09:17:35.855Z,98161.31
2023-04-01T09:20:03.127Z,98155.94
2023-04-01T09:22:48.989Z,98160.97
2023-04-01T09:25:48.590Z,98148.63
2023-04-01T09:28:26.214Z,98145.75
2023-04-01T09:31:02.889Z,98161.06
2023-04-01T09:33:49.020Z,98165.38
2023-04-01T09:36:18.843Z,98153.63
2023-04-01T09:38:58.007Z,98162.06
2023-04-01T09:41:33.270Z,98158.13
2023-04-01T09:44:40.428Z,98147.41
2023-04-01T09:47:14.868Z,98159.25
2023-04-01T09:49:59.304Z,98160.66
2023-04-01T09:52:44.146Z,98158.19
2023-04-01T09:55:34.681Z,98160.31
2023-04-01T09:58:02.044Z,98165.84
2023-04-01T10:01:10.742Z,98167.75
2023-04-01T10:04:05.413Z,98161.66
2023-04-01T10:06:45.000Z,98176.75
2023-04-01T10:09:39.484Z,98166.72
2023-04-01T10:12:09.548Z,98162.69
2023-04-01T10:14:55.658Z,98182.97
2023-04-01T10:17:23.024Z,98182.88
2023-04-01T10:20:09.189Z,98188.97
2023-04-01T10:22:54.058Z,98186.72
2023-04-01T10:25:35.960Z,98196.38
2023-04-01T10:28:08.684Z,98196.38
2023-04-01T10:31:05.034Z,98200.06
2023-04-01T10:33:51.348Z,98221.28
2023-04-01T10:36:18.782Z,98219.25
2023-04-01T10:39:06.972Z,98240.22
2023-04-01T10:41:34.436Z,98234.47
2023-04-01T10:44:38.553Z,98229.09
2023-04-01T10:47:25.401Z,98240.03
2023-04-01T10:50:11.203Z,98248.00
2023-04-01T10:52:50.822Z,98249.66
2023-04-01T10:55:33.400Z,98249.59
2023-04-01T10:58:19.556Z,98243.22
2023-04-01T11:01:25.606Z,98259.66
2023-04-01T11:04:23.790Z,98265.25
2023-04-01T11:07:23.189Z,98277.63
2023-04-01T11:10:09.305Z,98304.63
2023-04-01T11:13:02.378Z,98282.97
2023-04-01T11:15:45.893Z,98297.00
2023-04-01T11:18:31.641Z,98316.00
2023-04-01T11:21:17.788Z,98310.78
2023-04-01T11:24:03.936Z,98321.94
2023-04-01T11:26:36.705Z,98324.22
2023-04-01T11:29:23.699Z,98335.38
2023-04-01T11:31:56.104Z,98351.78
2023-04-01T11:34:25.694Z,98343.84
2023-04-01T11:37:20.659Z,98362.44
2023-04-01T11:40:17.167Z,98323.97
2023-04-01T11:43:32.339Z,98335.50
2023-04-01T11:46:35.190Z,98335.22
2023-04-01T11:49:17.425Z,98362.59
2023-04-01T11:52:10.392Z,98364.84
2023-04-01T11:54:56.334Z,98376.16
2023-04-01T11:57:41.330Z,98381.63
2023-04-01T12:00:27.038Z,98396.13
2023-04-01T12:03:03.341Z,98401.47
2023-04-01T12:05:50.888Z,98414.09
2023-04-01T12:08:27.311Z,98416.59
2023-04-01T12:11:00.848Z,98420.22
2023-04-01T12:13:33.916Z,98432.56
2023-04-01T12:16:22.547Z,98433.31
2023-04-01T12:18:53.857Z,98414.31
2023-04-01T12:21:26.371Z,98440.50
2023-04-01T12:24:03.549Z,98435.97
2023-04-01T12:26:36.823Z,98437.81
2023-04-01T12:29:13.714Z,98455.63
2023-04-01T12:31:40.961Z,98453.53
2023-04-01T12:34:17.228Z,98463.38
2023-04-01T12:36:57.756Z,98464.69
2023-04-01T12:39:42.288Z,98453.09
2023-04-01T12:42:12.521Z,98461.19
2023-04-01T12:44:45.764Z,98467.47
2023-04-01T12:47:25.099Z,98475.69
2023-04-01T12:50:11.195Z,98475.28
2023-04-01T12:53:04.784Z,98480.09
2023-04-01T12:55:31.936Z,98477.44
2023-04-01T12:58:08.467Z,98495.75
2023-04-01T13:01:10.903Z,98497.16
2023-04-01T13:03:50.176Z,98466.66
2023-04-01T13:06:18.563Z,98495.91
2023-04-01T13:09:04.023Z,98512.22
2023-04-01T13:11:49.819Z,98503.78
2023-04-01T13:14:29.148Z,98500.88
2023-04-01T13:17:06.606Z,98505.78
2023-04-01T13:20:02.466Z,98517.31
2023-04-01T13:22:34.588Z,98502.44
2023-04-01T13:25:14.997Z,98528.03
2023-04-01T13:27:44.805Z,98525.59
2023-04-01T13:31:04.450Z,98538.72
2023-04-01T13:33:57.605Z,98500.41
2023-04-01T13:36:30.473Z,98526.34
2023-04-01T13:39:03.037Z,98541.09
2023-04-01T13:41:40.421Z,98539.44
2023-04-01T13:44:10.469Z,98546.75
2023-04-01T13:46:40.327Z,98560.50
2023-04-01T13:49:07.525Z,98547.94
2023-04-01T13:51:57.099Z,98564.66
2023-04-01T13:54:27.186Z,98541.00
2023-04-01T13:57:06.315Z,98563.91
2023-04-01T13:59:39.564Z,98550.34
2023-04-01T14:02:16.068Z,98567.41
2023-04-01T14:04:46.317Z,98570.53
2023-04-01T14:07:19.549Z,98566.41
2023-04-01T14:09:54.381Z,98572.56
2023-04-01T14:12:21.457Z,98576.34
2023-04-01T14:15:07.024Z,98589.09
2023-04-01T14:17:49.241Z,98569.34
2023-04-01T14:20:31.476Z,98584.66
2023-04-01T14:22:58.487Z,98582.63
2023-04-01T14:25:25.611Z,98583.38
2023-04-01T14:27:56.054Z,98593.69
2023-04-01T14:30:41.941Z,98588.16
2023-04-01T14:33:18.084Z,98586.13
2023-04-01T14:35:51.238Z,98603.72
2023-04-01T14:38:33.387Z,98597.53
2023-04-01T14:41:18.155Z,98598.59
2023-04-01T14:44:04.870Z,98584.16
2023-04-01T14:46:50.317Z,98589.16
2023-04-01T14:49:23.280Z,98586.84
2023-04-01T14:51:52.806Z,98598.84
2023-04-01T14:54:31.768Z,98602.91
2023-04-01T14:57:10.428Z,98608.16
2023-04-01T14:59:40.591Z,98601.97
2023-04-01T15:02:13.466Z,98594.25
2023-04-01T15:04:55.622Z,98607.88
2023-04-01T15:07:35.223Z,98598.78
2023-04-01T15:10:02.381Z,98592.94
2023-04-01T15:12:45.732Z,98592.03
2023-04-01T15:15:37.172Z,98585.31
2023-04-01T15:18:04.429Z,98580.47
2023-04-01T15:20:34.928Z,98605.06
2023-04-01T15:23:22.466Z,98598.69
2023-04-01T15:26:01.394Z,98590.84
2023-04-01T15:28:28.539Z,98603.38
2023-04-01T15:31:13.863Z,98616.28
2023-04-01T15:33:56.623Z,98603.75
2023-04-01T15:36:45.719Z,98607.47
2023-04-01T15:39:18.611Z,98600.81
2023-04-01T15:42:24.023Z,98623.06
2023-04-01T15:44:53.907Z,98596.84
2023-04-01T15:47:21.145Z,98628.97
2023-04-01T15:49:55.365Z,98624.63
2023-04-01T15:52:44.276Z,98628.50
2023-04-01T15:55:29.606Z,98614.94
2023-04-01T15:57:56.623Z,98615.75
2023-04-01T16:00:29.187Z,98639.19
2023-04-01T16:03:14.628Z,98633.00
2023-04-01T16:05:56.787Z,98629.31
2023-04-01T16:08:46.035Z,98626.00
2023-04-01T16:11:19.890Z,98621.88
2023-04-01T16:13:56.658Z,98634.41
2023-04-01T16:16:42.642Z,98638.28
2023-04-01T16:19:09.786Z,98638.09
2023-04-01T16:21:44.270Z,98645.19
2023-04-01T16:24:24.566Z,98640.84
2023-04-01T16:26:51.691Z,98640.84
2023-04-01T16:29:26.424Z,98648.22
2023-04-01T16:32:12.260Z,98641.41
2023-04-01T16:34:44.355Z,98635.41
2023-04-01T16:37:14.634Z,98650.34
2023-04-01T16:40:02.223Z,98645.34
2023-04-01T16:42:29.386Z,98623.28
2023-04-01T16:45:01.393Z,98637.06
2023-04-01T16:47:33.666Z,98639.41
2023-04-01T16:50:07.816Z,98633.63
2023-04-01T16:52:47.668Z,98638.97
2023-04-01T16:55:19.172Z,98640.38
2023-04-01T16:57:53.318Z,98643.38
2023-04-01T17:00:23.517Z,98650.03
2023-04-01T17:03:09.209Z,98651.22
2023-04-01T17:05:39.056Z,98635.00
2023-04-01T17:08:24.856Z,98643.72
2023-04-01T17:11:00.166Z,98638.22
2023-04-01T17:13:34.898Z,98640.06
2023-04-01T17:16:17.515Z,98644.13
2023-04-01T17:19:03.714Z,98637.09
2023-04-01T17:21:53.901Z,98625.91
2023-04-01T17:24:41.375Z,98628.25
2023-04-01T17:27:21.810Z,98630.56
2023-04-01T17:30:08.770Z,98632.31
2023-04-01T17:32:50.808Z,98624.28
2023-04-01T17:35:18.510Z,98631.66
2023-04-01T17:38:06.949Z,98644.63
2023-04-01T17:40:40.405Z,98622.78
2023-04-01T17:43:22.978Z,98637.00
2023-04-01T17:45:57.528Z,98630.31
2023-04-01T17:48:30.575Z,98633.84
2023-04-01T17:50:57.604Z,98643.06
2023-04-01T17:53:45.748Z,98650.06
2023-04-01T17:56:19.909Z,98636.06
2023-04-01T17:58:51.159Z,98648.03
2023-04-01T18:01:18.272Z,98645.91
2023-04-01T18:04:06.670Z,98645.06
2023-04-01T18:06:52.787Z,98635.22
2023-04-01T18:09:26.115Z,98637.41
2023-04-01T18:12:02.289Z,98645.78
2023-04-01T18:14:46.760Z,98651.59
2023-04-01T18:17:20.693Z,98644.06
2023-04-01T18:20:23.250Z,98654.94
2023-04-01T18:22:59.915Z,98645.41
2023-04-01T18:25:29.887Z,98659.44
2023-04-01T18:28:15.594Z,98669.47
2023-04-01T18:30:43.713Z,98663.50
2023-04-01T18:33:31.436Z,98682.84
2023-04-01T18:36:16.661Z,98662.47
2023-04-01T18:38:50.549Z,98665.97
2023-04-01T18:41:23.740Z,98671.53
2023-04-01T18:43:57.305Z,98682.22
2023-04-01T18:46:34.986Z,98697.22
2023-04-01T18:49:08.467Z,98686.72
2023-04-01T18:51:48.166Z,98693.91
2023-04-01T18:54:24.235Z,98692.41
2023-04-01T18:56:51.750Z,98693.91
2023-04-01T18:59:22.850Z,98693.41
2023-04-01T19:02:29.766Z,98704.94
2023-04-01T19:05:11.858Z,98672.88
2023-04-01T19:07:43.281Z,98697.09
2023-04-01T19:10:16.372Z,98703.28
2023-04-01T19:12:55.751Z,98706.97
2023-04-01T19:15:46.679Z,98705.31
2023-04-01T19:18:16.743Z,98696.25
2023-04-01T19:20:48.555Z,98711.69
2023-04-01T19:23:53.943Z,98709.00
2023-04-01T19:26:33.652Z,98684.94
2023-04-01T19:29:12.222Z,98709.00
2023-04-01T19:31:57.692Z,98714.34
2023-04-01T19:34:43.922Z,98710.84
2023-04-01T19:37:10.984Z,98705.31
2023-04-01T19:39:43.954Z,98724.19
2023-04-01T19:42:20.327Z,98718.03
2023-04-01T19:45:06.083Z,98711.84
2023-04-01T19:47:43.696Z,98705.50
2023-04-01T19:50:23.318Z,98716.19
2023-04-01T19:52:52.724Z,98712.00
2023-04-01T19:55:25.562Z,98714.69
2023-04-01T19:58:01.803Z,98718.03
2023-04-01T20:00:32.729Z,98712.00
2023-04-01T20:03:04.460Z,98712.19
2023-04-01T20:05:39.808Z,98716.69
2023-04-01T20:08:08.397Z,98715.22
2023-04-01T20:10:41.878Z,98724.06
2023-04-01T20:13:27.801Z,98732.44
2023-04-01T20:16:16.432Z,98720.25
2023-04-01T20:19:00.759Z,98721.91
2023-04-01T20:21:28.534Z,98725.91
2023-04-01T20:24:01.704Z,98728.09
2023-04-01T20:26:31.892Z,98725.59
2023-04-01T20:28:58.924Z,98730.75
2023-04-01T20:31:30.920Z,98737.13
2023-04-01T20:33:58.643Z,98726.44
2023-04-01T20:36:25.995Z,98735.47
2023-04-01T20:39:04.844Z,98721.06
2023-04-01T20:41:40.228Z,98730.94
2023-04-01T20:44:12.983Z,98732.59
2023-04-01T20:47:18.416Z,98723.94
2023-04-01T20:49:56.431Z,98708.09
2023-04-01T20:52:27.122Z,98738.16
2023-04-01T20:55:14.274Z,98744.84
2023-04-01T20:57:48.141Z,98738.50
2023-04-01T21:00:23.404Z,98753.69
2023-04-01T21:02:53.925Z,98749.84
2023-04-01T21:05:40.003Z,98753.03
2023-04-01T21:08:16.352Z,98741.88
2023-04-01T21:10:58.670Z,98734.84
2023-04-01T21:13:44.333Z,98742.03
2023-04-01T21:16:14.322Z,98736.19
2023-04-01T21:18:41.420Z,98749.09
2023-04-01T21:21:20.879Z,98753.25
2023-04-01T21:23:55.393Z,98751.41
2023-04-01T21:26:43.687Z,98754.44
2023-04-01T21:29:29.630Z,98742.75
2023-04-01T21:32:08.025Z,98747.91
2023-04-01T21:34:35.331Z,98750.91
2023-04-01T21:37:18.051Z,98760.59
2023-04-01T21:40:04.860Z,98746.56
2023-04-01T21:42:50.617Z,98756.94
2023-04-01T21:45:30.475Z,98758.94
2023-04-01T21:48:16.548Z,98765.13
2023-04-01T21:50:48.405Z,98765.28
2023-04-01T21:53:15.491Z,98770.44
2023-04-01T21:55:42.557Z,98791.00
2023-04-01T21:58:09.626Z,98790.31
2023-04-01T22:00:39.552Z,98792.16
2023-04-01T22:03:27.748Z,98792.00
2023-04-01T22:06:01.906Z,98778.63
2023-04-01T22:08:41.993Z,98795.66
2023-04-01T22:11:18.158Z,98796.34
2023-04-01T22:13:50.438Z,98798.34
2023-04-01T22:16:18.230Z,98805.34
2023-04-01T22:19:20.443Z,98799.00
2023-04-01T22:22:02.087Z,98779.97
2023-04-01T22:24:44.452Z,98795.50
2023-04-01T22:27:14.473Z,98799.16
2023-04-01T22:29:48.707Z,98812.38
2023-04-01T22:32:21.754Z,98808.84
2023-04-01T22:35:10.716Z,98816.03
2023-04-01T22:37:52.890Z,98802.84
2023-04-01T22:40:31.827Z,98811.69
2023-04-01T22:43:02.634Z,98816.03
2023-04-01T22:45:45.073Z,98813.72
2023-04-01T22:48:22.187Z,98811.06
2023-04-01T22:50:55.504Z,98816.41
2023-04-01T22:53:28.756Z,98819.91
2023-04-01T22:55:58.185Z,98814.38
2023-04-01T22:58:37.408Z,98821.75
2023-04-01T23:01:07.435Z,98815.56
2023-04-01T23:03:41.312Z,98826.25
2023-04-01T23:06:13.234Z,98816.41
2023-04-01T23:08:43.129Z,98818.41
2023-04-01T23:11:21.345Z,98824.75
2023-04-01T23:13:53.600Z,98814.22
2023-04-01T23:16:31.814Z,98836.44
2023-04-01T23:19:09.367Z,98818.91
2023-04-01T23:21:45.852Z,98835.75
2023-04-01T23:24:22.142Z,98835.59
2023-04-01T23:27:05.511Z,98835.75
2023-04-01T23:29:36.374Z,98843.78
2023-04-01T23:32:04.792Z,98853.47
2023-04-01T23:34:33.378Z,98856.28
2023-04-01T23:37:03.639Z,98854.81
2023-04-01T23:39:35.674Z,98853.31
2023-04-01T23:42:05.378Z,98851.47
2023-04-01T23:44:33.451Z,98858.81
2023-04-01T23:47:01.802Z,98873.69
2023-04-01T23:49:37.949Z,98869.50
2023-04-01T23:52:14.100Z,98870.16
2023-04-01T23:54:49.113Z,98870.69
2023-04-01T23:57:19.026Z,98866.81
2023-04-01T23:59:59.625Z,98878.19
